createdAt,value
2022-09-13T00:00:03.009Z,7.75
2022-09-13T00:01:06.063Z,10.20
2022-09-13T00:02:07.799Z,7.07
2022-09-13T00:03:13.022Z,5.78
2022-09-13T00:04:14.822Z,6.57
2022-09-13T00:05:17.800Z,6.78
2022-09-13T00:06:21.141Z,7.55
2022-09-13T00:07:23.731Z,5.22
2022-09-13T00:08:26.240Z,7.72
2022-09-13T00:09:29.082Z,5.95
2022-09-13T00:10:34.530Z,5.00
2022-09-13T00:11:37.205Z,7.35
2022-09-13T00:12:39.159Z,5.80
2022-09-13T00:13:41.861Z,5.75
2022-09-13T00:14:43.478Z,6.07
2022-09-13T00:15:47.008Z,6.43
2022-09-13T00:16:49.929Z,7.55
2022-09-13T00:17:51.936Z,6.28
2022-09-13T00:18:55.479Z,6.22
2022-09-13T00:19:57.051Z,6.68
2022-09-13T00:21:08.271Z,7.68
2022-09-13T00:22:11.044Z,7.90
2022-09-13T00:23:12.969Z,6.72
2022-09-13T00:24:16.682Z,7.07
2022-09-13T00:25:19.367Z,7.30
2022-09-13T00:26:24.633Z,6.47
2022-09-13T00:27:27.051Z,6.32
2022-09-13T00:28:29.823Z,6.32
2022-09-13T00:29:31.495Z,5.63
2022-09-13T00:30:35.577Z,5.43
2022-09-13T00:31:37.153Z,7.45
2022-09-13T00:32:40.186Z,6.95
2022-09-13T00:33:41.711Z,6.82
2022-09-13T00:34:44.801Z,6.57
2022-09-13T00:35:46.416Z,5.00
2022-09-13T00:36:48.968Z,8.25
2022-09-13T00:37:50.559Z,6.40
2022-09-13T00:38:53.192Z,5.90
2022-09-13T00:39:54.750Z,6.88
2022-09-13T00:40:57.480Z,5.72
2022-09-13T00:42:01.606Z,5.55
2022-09-13T00:43:03.227Z,6.05
2022-09-13T00:44:07.133Z,7.22
2022-09-13T00:45:15.789Z,7.07
2022-09-13T00:46:23.593Z,6.95
2022-09-13T00:47:29.396Z,6.88
2022-09-13T00:48:32.428Z,6.10
2022-09-13T00:49:37.013Z,7.18
2022-09-13T00:50:41.562Z,6.70
2022-09-13T00:51:46.342Z,5.10
2022-09-13T00:52:51.806Z,5.38
2022-09-13T00:53:55.284Z,7.03
2022-09-13T00:55:01.755Z,7.75
2022-09-13T00:56:09.647Z,6.82
2022-09-13T00:57:15.188Z,5.15
2022-09-13T00:58:20.201Z,7.32
2022-09-13T00:59:27.763Z,9.18
2022-09-13T01:00:29.593Z,6.10
2022-09-13T01:01:36.882Z,7.43
2022-09-13T01:02:40.394Z,5.57
2022-09-13T01:03:43.808Z,8.57
2022-09-13T01:04:45.396Z,5.90
2022-09-13T01:05:50.405Z,6.25
2022-09-13T01:06:54.486Z,6.93
2022-09-13T01:07:58.004Z,6.13
2022-09-13T01:09:03.977Z,7.20
2022-09-13T01:10:08.564Z,6.93
2022-09-13T01:11:13.244Z,5.65
2022-09-13T01:12:25.662Z,4.57
2022-09-13T01:13:29.373Z,8.55
2022-09-13T01:14:32.525Z,5.85
2022-09-13T01:15:34.067Z,7.18
2022-09-13T01:16:36.741Z,8.38
2022-09-13T01:17:39.716Z,6.70
2022-09-13T01:18:42.286Z,7.35
2022-09-13T01:19:44.189Z,6.65
2022-09-13T01:21:09.957Z,5.57
2022-09-13T01:22:39.908Z,6.18
2022-09-13T01:24:11.186Z,8.25
2022-09-13T01:25:51.425Z,5.88
2022-09-13T01:27:09.353Z,7.45
2022-09-13T01:28:19.539Z,4.82
2022-09-13T01:29:41.010Z,7.25
2022-09-13T01:30:45.669Z,7.25
2022-09-13T01:31:54.391Z,7.50
2022-09-13T01:33:27.376Z,9.00
2022-09-13T01:34:35.248Z,8.10
2022-09-13T01:35:50.693Z,5.25
2022-09-13T01:36:59.256Z,5.18
2022-09-13T01:38:05.755Z,5.30
2022-09-13T01:39:10.094Z,5.55
2022-09-13T01:40:20.446Z,5.68
2022-09-13T01:41:33.630Z,6.32
2022-09-13T01:42:47.109Z,8.30
2022-09-13T01:43:54.853Z,6.97
2022-09-13T01:45:07.995Z,7.20
2022-09-13T01:46:14.181Z,4.90
2022-09-13T01:47:24.718Z,5.95
2022-09-13T01:48:34.494Z,7.10
2022-09-13T01:49:45.074Z,7.05
2022-09-13T01:50:53.165Z,5.13
2022-09-13T01:52:01.048Z,5.45
2022-09-13T01:53:06.221Z,6.40
2022-09-13T01:54:15.326Z,8.70
2022-09-13T01:55:27.168Z,5.65
2022-09-13T01:56:37.443Z,5.20
2022-09-13T01:57:44.308Z,6.50
2022-09-13T01:58:50.317Z,6.22
2022-09-13T01:59:54.529Z,4.90
2022-09-13T02:01:03.462Z,7.40
2022-09-13T02:02:09.388Z,8.07
2022-09-13T02:03:14.180Z,5.72
2022-09-13T02:04:29.049Z,6.43
2022-09-13T02:05:38.394Z,6.63
2022-09-13T02:06:46.965Z,6.43
2022-09-13T02:07:55.235Z,4.82
2022-09-13T02:09:00.604Z,6.60
2022-09-13T02:10:11.580Z,6.55
2022-09-13T02:11:14.985Z,6.32
2022-09-13T02:12:20.965Z,6.95
2022-09-13T02:13:25.783Z,4.85
2022-09-13T02:14:32.945Z,6.88
2022-09-13T02:15:38.543Z,5.63
2022-09-13T02:16:45.668Z,6.28
2022-09-13T02:17:52.425Z,5.88
2022-09-13T02:18:58.986Z,13.63
2022-09-13T02:20:04.020Z,6.32
2022-09-13T02:21:10.943Z,5.05
2022-09-13T02:22:13.966Z,5.18
2022-09-13T02:23:22.269Z,7.07
2022-09-13T02:24:28.708Z,7.38
2022-09-13T02:25:34.987Z,6.47
2022-09-13T02:26:38.749Z,5.65
2022-09-13T02:27:42.639Z,6.95
2022-09-13T02:28:48.162Z,7.57
2022-09-13T02:29:54.617Z,6.35
2022-09-13T02:30:59.314Z,6.43
2022-09-13T02:32:07.280Z,5.78
2022-09-13T02:33:14.129Z,5.68
2022-09-13T02:34:19.980Z,6.57
2022-09-13T02:35:25.377Z,6.60
2022-09-13T02:36:31.228Z,6.75
2022-09-13T02:37:34.730Z,6.60
2022-09-13T02:38:45.124Z,6.93
2022-09-13T02:39:51.859Z,6.30
2022-09-13T02:40:58.421Z,6.78
2022-09-13T02:42:09.231Z,7.63
2022-09-13T02:43:16.989Z,6.00
2022-09-13T02:44:25.010Z,6.25
2022-09-13T02:45:32.814Z,7.13
2022-09-13T02:46:50.699Z,9.57
2022-09-13T02:47:57.348Z,5.60
2022-09-13T02:49:05.358Z,7.80
2022-09-13T02:50:18.392Z,5.85
2022-09-13T02:51:28.527Z,5.35
2022-09-13T02:52:39.643Z,8.27
2022-09-13T02:53:44.715Z,6.60
2022-09-13T02:54:53.888Z,6.78
2022-09-13T02:56:03.029Z,6.05
2022-09-13T02:57:08.567Z,5.13
2022-09-13T02:58:14.033Z,9.75
2022-09-13T02:59:18.340Z,6.45
2022-09-13T03:00:19.989Z,6.13
2022-09-13T03:01:22.835Z,6.75
2022-09-13T03:02:27.665Z,8.27
2022-09-13T03:03:30.389Z,6.10
2022-09-13T03:04:34.370Z,6.20
2022-09-13T03:05:36.988Z,6.05
2022-09-13T03:06:40.489Z,5.80
2022-09-13T03:07:43.193Z,5.72
2022-09-13T03:08:44.890Z,6.65
2022-09-13T03:09:51.085Z,6.80
2022-09-13T03:11:00.256Z,5.75
2022-09-13T03:12:23.634Z,6.32
2022-09-13T03:13:34.907Z,6.00
2022-09-13T03:14:44.242Z,6.35
2022-09-13T03:15:54.471Z,5.60
2022-09-13T03:17:08.137Z,4.88
2022-09-13T03:18:23.801Z,6.00
2022-09-13T03:19:41.363Z,6.47
2022-09-13T03:20:47.914Z,5.38
2022-09-13T03:22:03.653Z,6.68
2022-09-13T03:23:13.982Z,5.38
2022-09-13T03:24:23.542Z,6.68
2022-09-13T03:25:33.657Z,7.72
2022-09-13T03:26:57.269Z,8.93
2022-09-13T03:28:05.024Z,6.75
2022-09-13T03:29:16.995Z,6.05
2022-09-13T03:30:19.063Z,5.85
2022-09-13T03:31:28.986Z,6.38
2022-09-13T03:32:36.208Z,8.57
2022-09-13T03:33:45.678Z,6.75
2022-09-13T03:34:53.780Z,5.63
2022-09-13T03:36:00.488Z,8.07
2022-09-13T03:37:07.492Z,5.60
2022-09-13T03:38:10.899Z,6.53
2022-09-13T03:39:18.126Z,7.10
2022-09-13T03:40:22.862Z,5.82
2022-09-13T03:41:28.254Z,7.22
2022-09-13T03:42:34.072Z,7.03
2022-09-13T03:43:38.790Z,6.47
2022-09-13T03:44:42.077Z,8.88
2022-09-13T03:45:48.860Z,5.05
2022-09-13T03:46:54.886Z,7.72
2022-09-13T03:47:58.039Z,7.18
2022-09-13T03:49:02.847Z,6.63
2022-09-13T03:50:09.057Z,7.90
2022-09-13T03:51:11.507Z,6.75
2022-09-13T03:52:14.074Z,6.18
2022-09-13T03:53:29.144Z,5.82
2022-09-13T03:54:33.281Z,6.10
2022-09-13T03:55:35.368Z,6.32
2022-09-13T03:56:37.916Z,6.45
2022-09-13T03:57:39.480Z,6.93
2022-09-13T03:58:42.305Z,7.20
2022-09-13T03:59:46.407Z,5.55
2022-09-13T04:00:50.040Z,5.80
2022-09-13T04:01:52.285Z,5.95
2022-09-13T04:02:55.468Z,6.20
2022-09-13T04:03:57.265Z,6.60
2022-09-13T04:04:59.841Z,7.90
2022-09-13T04:06:02.974Z,6.93
2022-09-13T04:07:05.662Z,7.63
2022-09-13T04:08:08.383Z,6.40
2022-09-13T04:09:11.113Z,6.18
2022-09-13T04:10:13.933Z,7.72
2022-09-13T04:11:16.813Z,8.02
2022-09-13T04:12:18.871Z,4.80
2022-09-13T04:13:22.885Z,7.82
2022-09-13T04:14:26.425Z,5.45
2022-09-13T04:15:28.970Z,7.15
2022-09-13T04:16:30.528Z,5.93
2022-09-13T04:17:33.088Z,6.95
2022-09-13T04:18:35.241Z,8.38
2022-09-13T04:19:38.110Z,7.95
2022-09-13T04:20:39.863Z,5.90
2022-09-13T04:21:44.153Z,6.32
2022-09-13T04:22:52.227Z,6.03
2022-09-13T04:23:53.758Z,4.63
2022-09-13T04:25:00.217Z,7.05
2022-09-13T04:26:05.099Z,7.07
2022-09-13T04:27:08.026Z,7.43
2022-09-13T04:28:09.583Z,5.13
2022-09-13T04:29:12.501Z,8.05
2022-09-13T04:30:14.084Z,6.13
2022-09-13T04:31:16.694Z,6.10
2022-09-13T04:32:18.387Z,6.53
2022-09-13T04:33:22.136Z,7.13
2022-09-13T04:34:23.795Z,9.77
2022-09-13T04:35:26.406Z,7.07
2022-09-13T04:36:28.501Z,5.70
2022-09-13T04:37:32.349Z,9.43
2022-09-13T04:38:33.867Z,6.70
2022-09-13T04:39:36.688Z,7.00
2022-09-13T04:40:39.380Z,5.95
2022-09-13T04:41:41.878Z,8.70
2022-09-13T04:42:44.122Z,7.32
2022-09-13T04:43:50.235Z,6.70
2022-09-13T04:44:51.825Z,5.07
2022-09-13T04:45:54.405Z,7.75
2022-09-13T04:46:56.019Z,6.40
2022-09-13T04:47:58.519Z,6.80
2022-09-13T04:49:00.655Z,5.45
2022-09-13T04:50:03.185Z,7.25
2022-09-13T04:51:05.236Z,8.77
2022-09-13T04:52:07.711Z,7.40
2022-09-13T04:53:11.192Z,5.63
2022-09-13T04:54:16.085Z,8.80
2022-09-13T04:55:18.018Z,8.52
2022-09-13T04:56:20.965Z,6.55
2022-09-13T04:57:23.461Z,9.75
2022-09-13T04:58:25.301Z,6.68
2022-09-13T04:59:27.825Z,8.32
2022-09-13T05:00:29.467Z,8.27
2022-09-13T05:01:32.060Z,8.13
2022-09-13T05:02:33.797Z,10.45
2022-09-13T05:03:36.799Z,7.88
2022-09-13T05:04:39.446Z,9.95
2022-09-13T05:05:40.967Z,8.95
2022-09-13T05:06:43.491Z,8.43
2022-09-13T05:07:45.028Z,8.00
2022-09-13T05:08:54.877Z,6.97
2022-09-13T05:09:56.412Z,10.23
2022-09-13T05:10:59.208Z,9.55
2022-09-13T05:12:01.709Z,8.65
2022-09-13T05:13:03.486Z,8.10
2022-09-13T05:14:06.378Z,8.30
2022-09-13T05:15:09.363Z,7.72
2022-09-13T05:16:12.112Z,8.05
2022-09-13T05:17:13.733Z,9.20
2022-09-13T05:18:16.328Z,8.27
2022-09-13T05:19:18.940Z,7.80
2022-09-13T05:20:21.103Z,7.18
2022-09-13T05:21:24.034Z,8.65
2022-09-13T05:22:25.566Z,7.32
2022-09-13T05:23:29.014Z,8.43
2022-09-13T05:24:33.097Z,8.35
2022-09-13T05:25:34.655Z,9.23
2022-09-13T05:26:37.333Z,11.20
2022-09-13T05:27:38.850Z,7.78
2022-09-13T05:28:41.344Z,7.72
2022-09-13T05:29:42.988Z,8.48
2022-09-13T05:30:45.736Z,7.32
2022-09-13T05:31:48.280Z,11.70
2022-09-13T05:32:49.853Z,8.32
2022-09-13T05:33:55.368Z,8.60
2022-09-13T05:34:56.955Z,7.38
2022-09-13T05:35:59.633Z,9.30
2022-09-13T05:37:01.162Z,10.30
2022-09-13T05:38:04.011Z,9.00
2022-09-13T05:40:31.099Z,10.93
2022-09-13T05:41:33.654Z,12.18
2022-09-13T05:42:35.306Z,8.85
2022-09-13T05:43:38.210Z,9.80
2022-09-13T05:44:39.767Z,8.15
2022-09-13T05:45:42.290Z,8.45
2022-09-13T05:46:47.868Z,9.40
2022-09-13T05:47:50.947Z,8.85
2022-09-13T05:48:53.459Z,8.65
2022-09-13T05:50:09.803Z,7.75
2022-09-13T05:51:14.792Z,11.13
2022-09-13T05:52:16.330Z,9.30
2022-09-13T05:53:18.794Z,8.15
2022-09-13T05:54:21.314Z,11.32
2022-09-13T05:55:23.416Z,8.90
2022-09-13T05:56:29.904Z,8.98
2022-09-13T05:57:31.834Z,8.88
2022-09-13T05:58:34.967Z,7.55
2022-09-13T05:59:36.556Z,9.35
2022-09-13T06:00:39.089Z,9.63
2022-09-13T06:01:41.125Z,8.05
2022-09-13T06:02:43.737Z,8.18
2022-09-13T06:03:47.227Z,9.93
2022-09-13T06:04:50.841Z,9.43
2022-09-13T06:05:55.490Z,9.38
2022-09-13T06:06:57.993Z,10.43
2022-09-13T06:07:59.495Z,10.82
2022-09-13T06:09:01.996Z,6.70
2022-09-13T06:10:04.763Z,7.80
2022-09-13T06:11:08.586Z,7.93
2022-09-13T06:12:12.018Z,10.35
2022-09-13T06:13:14.565Z,7.82
2022-09-13T06:14:17.646Z,10.02
2022-09-13T06:15:19.162Z,9.38
2022-09-13T06:16:21.896Z,8.60
2022-09-13T06:17:23.781Z,9.20
2022-09-13T06:18:26.873Z,13.10
2022-09-13T06:19:28.527Z,15.77
2022-09-13T06:20:31.004Z,11.98
2022-09-13T06:21:33.534Z,11.93
2022-09-13T06:22:35.306Z,10.35
2022-09-13T06:23:38.281Z,10.18
2022-09-13T06:24:39.831Z,13.90
2022-09-13T06:25:43.233Z,6.55
2022-09-13T06:26:44.825Z,7.63
2022-09-13T06:27:50.142Z,12.45
2022-09-13T06:28:53.495Z,7.80
2022-09-13T06:29:56.077Z,13.25
2022-09-13T06:31:02.830Z,6.57
2022-09-13T06:32:06.837Z,6.72
2022-09-13T06:33:10.868Z,9.73
2022-09-13T06:34:13.928Z,10.18
2022-09-13T06:35:17.759Z,6.75
2022-09-13T06:36:20.548Z,9.07
2022-09-13T06:37:22.122Z,6.57
2022-09-13T06:38:24.724Z,8.45
2022-09-13T06:39:26.295Z,13.02
2022-09-13T06:40:28.894Z,7.90
2022-09-13T06:41:30.568Z,8.93
2022-09-13T06:42:53.854Z,10.30
2022-09-13T06:43:57.378Z,6.07
2022-09-13T06:44:59.811Z,7.95
2022-09-13T06:46:03.010Z,6.05
2022-09-13T06:47:04.759Z,8.02
2022-09-13T06:48:07.290Z,9.82
2022-09-13T06:49:10.682Z,8.90
2022-09-13T06:50:13.764Z,7.43
2022-09-13T06:51:18.660Z,7.15
2022-09-13T06:52:20.182Z,6.85
2022-09-13T06:53:22.666Z,11.43
2022-09-13T06:54:24.301Z,5.93
2022-09-13T06:55:26.815Z,7.70
2022-09-13T06:56:30.384Z,9.18
2022-09-13T06:57:32.999Z,6.10
2022-09-13T06:58:37.649Z,9.40
2022-09-13T06:59:40.359Z,7.05
2022-09-13T07:00:42.032Z,9.05
2022-09-13T07:01:45.561Z,9.00
2022-09-13T07:02:51.940Z,8.85
2022-09-13T07:03:55.930Z,8.73
2022-09-13T07:04:57.488Z,6.93
2022-09-13T07:06:00.035Z,7.05
2022-09-13T07:07:02.807Z,9.00
2022-09-13T07:08:04.381Z,10.35
2022-09-13T07:09:09.119Z,10.85
2022-09-13T07:10:10.807Z,7.78
2022-09-13T07:11:16.849Z,7.00
2022-09-13T07:12:20.550Z,9.77
2022-09-13T07:13:23.284Z,7.75
2022-09-13T07:14:29.123Z,4.97
2022-09-13T07:15:30.806Z,8.60
2022-09-13T07:16:34.674Z,7.93
2022-09-13T07:17:36.191Z,7.07
2022-09-13T07:18:39.170Z,9.48
2022-09-13T07:19:41.975Z,7.38
2022-09-13T07:20:43.478Z,6.32
2022-09-13T07:21:47.044Z,7.25
2022-09-13T07:22:48.568Z,8.30
2022-09-13T07:23:52.492Z,7.68
2022-09-13T07:24:55.322Z,9.65
2022-09-13T07:26:01.837Z,8.45
2022-09-13T07:27:04.421Z,13.20
2022-09-13T07:28:06.634Z,10.40
2022-09-13T07:29:11.773Z,8.68
2022-09-13T07:30:16.041Z,6.50
2022-09-13T07:31:20.486Z,13.10
2022-09-13T07:32:23.039Z,9.38
2022-09-13T07:33:24.696Z,8.02
2022-09-13T07:34:27.785Z,9.10
2022-09-13T07:35:29.325Z,6.75
2022-09-13T07:36:33.292Z,6.13
2022-09-13T07:37:35.855Z,10.43
2022-09-13T07:38:38.642Z,8.70
2022-09-13T07:39:41.206Z,9.18
2022-09-13T07:40:43.824Z,8.88
2022-09-13T07:41:48.173Z,9.77
2022-09-13T07:42:49.698Z,8.93
2022-09-13T07:43:52.672Z,8.82
2022-09-13T07:44:55.214Z,10.68
2022-09-13T07:45:59.078Z,9.30
2022-09-13T07:47:01.627Z,8.27
2022-09-13T07:48:04.182Z,12.13
2022-09-13T07:49:06.495Z,8.20
2022-09-13T07:50:09.829Z,6.50
2022-09-13T07:51:13.170Z,9.45
2022-09-13T07:52:15.693Z,11.90
2022-09-13T07:53:17.216Z,8.55
2022-09-13T07:54:20.093Z,10.60
2022-09-13T07:55:21.618Z,11.73
2022-09-13T07:56:25.641Z,11.40
2022-09-13T07:57:28.536Z,11.15
2022-09-13T07:58:30.440Z,9.05
2022-09-13T07:59:32.925Z,8.73
2022-09-13T08:00:34.477Z,8.73
2022-09-13T08:01:40.795Z,11.88
2022-09-13T08:02:42.565Z,10.25
2022-09-13T08:03:45.599Z,8.32
2022-09-13T08:04:48.099Z,7.88
2022-09-13T08:05:49.599Z,11.05
2022-09-13T08:06:52.141Z,10.57
2022-09-13T08:07:53.631Z,11.10
2022-09-13T08:08:56.203Z,9.00
2022-09-13T08:09:58.694Z,8.40
2022-09-13T08:11:01.459Z,9.85
2022-09-13T08:12:04.340Z,13.50
2022-09-13T08:13:05.896Z,9.23
2022-09-13T08:14:12.945Z,12.23
2022-09-13T08:15:14.464Z,8.32
2022-09-13T08:16:18.994Z,10.40
2022-09-13T08:17:21.860Z,9.50
2022-09-13T08:18:24.613Z,13.25
2022-09-13T08:19:27.188Z,8.82
2022-09-13T08:20:28.707Z,8.63
2022-09-13T08:21:34.496Z,10.10
2022-09-13T08:22:36.064Z,11.07
2022-09-13T08:23:38.605Z,11.43
2022-09-13T08:24:41.126Z,10.25
2022-09-13T08:25:42.702Z,11.02
2022-09-13T08:26:45.655Z,11.75
2022-09-13T08:27:47.151Z,9.00
2022-09-13T08:28:49.656Z,9.95
2022-09-13T08:29:52.151Z,10.55
2022-09-13T08:30:53.761Z,11.40
2022-09-13T08:31:56.314Z,9.85
2022-09-13T08:32:59.484Z,9.02
2022-09-13T08:34:02.079Z,9.23
2022-09-13T08:35:04.106Z,9.90
2022-09-13T08:36:06.797Z,11.30
2022-09-13T08:37:09.818Z,19.58
2022-09-13T08:38:11.912Z,10.60
2022-09-13T08:39:14.555Z,11.93
2022-09-13T08:40:16.364Z,11.13
2022-09-13T08:41:35.060Z,11.07
2022-09-13T08:42:47.903Z,11.38
2022-09-13T08:43:53.444Z,12.63
2022-09-13T08:44:57.527Z,13.27
2022-09-13T08:46:01.564Z,11.43
2022-09-13T08:47:17.470Z,10.02
2022-09-13T08:48:24.525Z,12.52
2022-09-13T08:49:29.035Z,14.77
2022-09-13T08:50:34.957Z,15.35
2022-09-13T08:51:42.701Z,10.52
2022-09-13T08:52:55.742Z,13.07
2022-09-13T08:53:58.377Z,11.32
2022-09-13T08:55:04.929Z,11.15
2022-09-13T08:56:11.313Z,16.60
2022-09-13T08:57:18.477Z,12.88
2022-09-13T08:58:30.986Z,11.68
2022-09-13T08:59:40.793Z,10.60
2022-09-13T09:00:46.547Z,12.10
2022-09-13T09:01:55.427Z,16.90
2022-09-13T09:03:07.612Z,16.48
2022-09-13T09:04:16.745Z,15.00
2022-09-13T09:05:19.988Z,13.82
2022-09-13T09:06:23.552Z,13.15
2022-09-13T09:07:27.283Z,15.75
2022-09-13T09:08:33.802Z,11.32
2022-09-13T09:09:39.947Z,12.25
2022-09-13T09:10:43.867Z,15.10
2022-09-13T09:11:48.780Z,15.27
2022-09-13T09:12:54.176Z,16.73
2022-09-13T09:14:02.521Z,17.17
2022-09-13T09:15:14.396Z,13.65
2022-09-13T09:16:26.625Z,15.82
2022-09-13T09:17:33.489Z,14.90
2022-09-13T09:18:40.957Z,15.45
2022-09-13T09:19:50.894Z,16.13
2022-09-13T09:20:55.923Z,18.55
2022-09-13T09:22:04.454Z,14.07
2022-09-13T09:23:09.603Z,12.48
2022-09-13T09:24:17.557Z,14.65
2022-09-13T09:25:21.093Z,16.42
2022-09-13T09:26:26.363Z,12.48
2022-09-13T09:27:31.031Z,14.63
2022-09-13T09:28:58.116Z,15.43
2022-09-13T09:30:25.904Z,11.57
2022-09-13T09:31:33.412Z,14.55
2022-09-13T09:32:47.228Z,13.00
2022-09-13T09:34:03.764Z,16.92
2022-09-13T09:35:13.304Z,13.05
2022-09-13T09:36:22.312Z,9.45
2022-09-13T09:37:26.792Z,14.32
2022-09-13T09:38:34.101Z,12.48
2022-09-13T09:39:46.011Z,14.48
2022-09-13T09:40:47.580Z,13.60
2022-09-13T09:41:50.271Z,12.25
2022-09-13T09:42:51.816Z,12.70
2022-09-13T09:44:00.009Z,12.25
2022-09-13T09:45:06.097Z,13.57
2022-09-13T09:46:11.159Z,13.02
2022-09-13T09:47:15.547Z,12.68
2022-09-13T09:48:21.722Z,14.02
2022-09-13T09:49:46.098Z,11.25
2022-09-13T09:50:52.453Z,12.85
2022-09-13T09:51:56.615Z,9.40
2022-09-13T09:53:04.618Z,9.02
2022-09-13T09:54:06.374Z,9.43
2022-09-13T09:55:16.851Z,6.20
2022-09-13T09:56:24.773Z,8.30
2022-09-13T09:57:51.465Z,7.45
2022-09-13T09:58:55.727Z,9.23
2022-09-13T10:00:11.113Z,11.70
2022-09-13T10:01:23.885Z,7.80
2022-09-13T10:02:25.565Z,6.70
2022-09-13T10:03:29.949Z,8.15
2022-09-13T10:04:32.726Z,8.80
2022-09-13T10:05:34.909Z,7.40
2022-09-13T10:06:40.334Z,8.05
2022-09-13T10:07:42.056Z,11.98
2022-09-13T10:08:59.926Z,7.80
2022-09-13T10:10:06.497Z,8.50
2022-09-13T10:11:09.396Z,8.60
2022-09-13T10:12:27.762Z,8.27
2022-09-13T10:13:31.859Z,10.32
2022-09-13T10:14:40.053Z,8.23
2022-09-13T10:15:53.006Z,8.82
2022-09-13T10:17:05.169Z,9.38
2022-09-13T10:18:39.906Z,7.15
2022-09-13T10:19:39.117Z,6.05
2022-09-13T10:20:42.327Z,7.47
2022-09-13T10:22:01.005Z,6.85
2022-09-13T10:23:20.189Z,7.60
2022-09-13T10:24:24.192Z,7.13
2022-09-13T10:25:26.987Z,6.63
2022-09-13T10:26:33.752Z,7.15
2022-09-13T10:27:39.520Z,9.25
2022-09-13T10:28:46.050Z,6.35
2022-09-13T10:29:48.216Z,6.85
2022-09-13T10:30:55.086Z,7.03
2022-09-13T10:31:58.969Z,8.88
2022-09-13T10:33:00.852Z,8.43
2022-09-13T10:34:04.629Z,10.10
2022-09-13T10:35:10.767Z,6.18
2022-09-13T10:36:25.159Z,7.20
2022-09-13T10:37:44.650Z,9.85
2022-09-13T10:38:53.064Z,11.40
2022-09-13T10:40:03.874Z,6.50
2022-09-13T10:41:08.275Z,6.93
2022-09-13T10:42:12.061Z,6.20
2022-09-13T10:43:16.205Z,7.95
2022-09-13T10:44:30.082Z,6.72
2022-09-13T10:45:32.945Z,10.15
2022-09-13T10:46:37.153Z,7.75
2022-09-13T10:47:47.857Z,9.63
2022-09-13T10:48:55.935Z,6.50
2022-09-13T10:49:59.850Z,7.38
2022-09-13T10:51:04.798Z,5.68
2022-09-13T10:52:32.037Z,5.43
2022-09-13T10:53:37.773Z,7.03
2022-09-13T10:54:40.584Z,5.10
2022-09-13T10:55:44.273Z,6.63
2022-09-13T10:56:46.727Z,6.47
2022-09-13T10:57:51.267Z,8.18
2022-09-13T10:59:18.460Z,9.18
2022-09-13T11:00:21.806Z,7.57
2022-09-13T11:01:43.849Z,6.03
2022-09-13T11:03:03.196Z,8.77
2022-09-13T11:04:44.908Z,7.82
2022-09-13T11:05:50.755Z,8.57
2022-09-13T11:07:02.161Z,4.30
2022-09-13T11:08:22.911Z,5.10
2022-09-13T11:09:31.876Z,3.78
2022-09-13T11:10:38.980Z,5.88
2022-09-13T11:11:45.776Z,5.63
2022-09-13T11:12:54.391Z,6.75
2022-09-13T11:14:07.966Z,7.55
2022-09-13T11:15:21.133Z,8.68
2022-09-13T11:16:35.597Z,4.63
2022-09-13T11:18:02.285Z,8.30
2022-09-13T11:19:30.433Z,6.70
2022-09-13T11:20:39.292Z,6.03
2022-09-13T11:21:49.698Z,6.93
2022-09-13T11:23:02.170Z,6.65
2022-09-13T11:24:42.437Z,7.47
2022-09-13T11:25:55.593Z,7.55
2022-09-13T11:27:02.026Z,8.95
2022-09-13T11:28:10.376Z,7.45
2022-09-13T11:29:25.523Z,10.82
2022-09-13T11:30:30.135Z,8.32
2022-09-13T11:31:44.009Z,8.35
2022-09-13T11:32:57.426Z,6.30
2022-09-13T11:34:10.460Z,6.90
2022-09-13T11:35:29.417Z,8.70
2022-09-13T11:36:52.948Z,5.75
2022-09-13T11:38:01.394Z,6.03
2022-09-13T11:39:13.619Z,8.35
2022-09-13T11:40:34.209Z,7.68
2022-09-13T11:41:43.632Z,11.10
2022-09-13T11:42:52.369Z,5.50
2022-09-13T11:44:29.893Z,7.53
2022-09-13T11:45:35.151Z,8.40
2022-09-13T11:46:43.809Z,4.43
2022-09-13T11:47:56.254Z,6.07
2022-09-13T11:49:13.772Z,5.85
2022-09-13T11:50:37.318Z,8.35
2022-09-13T11:51:48.908Z,5.78
2022-09-13T11:52:59.987Z,6.07
2022-09-13T11:54:14.827Z,6.97
2022-09-13T11:55:18.761Z,9.98
2022-09-13T11:56:26.089Z,6.15
2022-09-13T11:57:33.084Z,8.30
2022-09-13T11:58:38.999Z,6.93
2022-09-13T11:59:42.509Z,8.60
2022-09-13T12:00:47.575Z,8.88
2022-09-13T12:01:52.197Z,7.80
2022-09-13T12:03:03.049Z,13.93
2022-09-13T12:04:07.404Z,6.30
2022-09-13T12:05:24.210Z,6.95
2022-09-13T12:06:29.345Z,7.95
2022-09-13T12:07:35.520Z,6.13
2022-09-13T12:08:41.024Z,8.63
2022-09-13T12:09:51.507Z,7.35
2022-09-13T12:10:57.682Z,5.38
2022-09-13T12:12:05.558Z,6.28
2022-09-13T12:13:11.025Z,7.72
2022-09-13T12:14:16.322Z,9.60
2022-09-13T12:15:22.577Z,5.70
2022-09-13T12:16:28.192Z,8.57
2022-09-13T12:17:34.830Z,7.20
2022-09-13T12:18:40.997Z,6.32
2022-09-13T12:19:46.137Z,9.40
2022-09-13T12:20:51.394Z,8.18
2022-09-13T12:21:53.891Z,8.13
2022-09-13T12:22:57.140Z,5.95
2022-09-13T12:24:05.877Z,10.85
2022-09-13T12:25:20.694Z,9.10
2022-09-13T12:26:25.254Z,8.05
2022-09-13T12:27:39.665Z,9.90
2022-09-13T12:28:46.849Z,8.57
2022-09-13T12:29:51.850Z,7.70
2022-09-13T12:30:57.884Z,8.77
2022-09-13T12:32:03.145Z,16.52
2022-09-13T12:33:06.074Z,8.52
2022-09-13T12:34:11.334Z,10.00
2022-09-13T12:35:20.023Z,9.00
2022-09-13T12:36:43.417Z,8.35
2022-09-13T12:38:02.625Z,9.32
2022-09-13T12:39:26.800Z,8.02
2022-09-13T12:40:42.761Z,11.18
2022-09-13T12:41:55.756Z,7.40
2022-09-13T12:43:20.729Z,8.73
2022-09-13T12:44:39.241Z,7.35
2022-09-13T12:45:54.623Z,9.98
2022-09-13T12:47:23.346Z,6.10
2022-09-13T12:48:35.243Z,9.35
2022-09-13T12:49:46.005Z,6.68
2022-09-13T12:51:06.279Z,8.23
2022-09-13T12:52:22.365Z,6.10
2022-09-13T12:53:49.573Z,7.97
2022-09-13T12:55:35.683Z,9.70
2022-09-13T12:56:46.062Z,6.47
2022-09-13T12:57:53.831Z,4.55
2022-09-13T12:59:28.041Z,8.93
2022-09-13T13:00:30.968Z,4.57
2022-09-13T13:01:34.656Z,4.22
2022-09-13T13:02:38.841Z,6.28
2022-09-13T13:03:49.955Z,4.78
2022-09-13T13:04:54.942Z,5.47
2022-09-13T13:06:07.034Z,5.03
2022-09-13T13:07:19.391Z,5.82
2022-09-13T13:08:30.277Z,4.30
2022-09-13T13:09:36.603Z,5.45
2022-09-13T13:10:39.899Z,5.45
2022-09-13T13:11:44.423Z,4.65
2022-09-13T13:12:46.981Z,8.35
2022-09-13T13:13:55.265Z,6.85
2022-09-13T13:15:00.576Z,5.90
2022-09-13T13:16:21.373Z,5.97
2022-09-13T13:17:39.313Z,5.20
2022-09-13T13:18:46.347Z,4.75
2022-09-13T13:19:47.889Z,5.07
2022-09-13T13:21:07.676Z,5.38
2022-09-13T13:22:50.062Z,3.90
2022-09-13T13:24:25.831Z,4.05
2022-09-13T13:25:32.693Z,5.93
2022-09-13T13:26:45.736Z,8.48
2022-09-13T13:27:51.519Z,4.88
2022-09-13T13:29:20.837Z,5.03
2022-09-13T13:30:56.238Z,4.05
2022-09-13T13:32:12.042Z,4.55
2022-09-13T13:33:17.044Z,3.40
2022-09-13T13:34:28.941Z,5.32
2022-09-13T13:35:32.855Z,6.05
2022-09-13T13:36:44.751Z,4.78
2022-09-13T13:37:47.484Z,5.70
2022-09-13T13:38:49.445Z,7.82
2022-09-13T13:40:14.341Z,4.65
2022-09-13T13:41:43.841Z,3.95
2022-09-13T13:42:46.379Z,5.57
2022-09-13T13:43:48.046Z,2.83
2022-09-13T13:45:14.744Z,5.13
2022-09-13T13:46:32.178Z,4.07
2022-09-13T13:48:18.385Z,5.13
2022-09-13T13:49:46.116Z,7.15
2022-09-13T13:51:17.917Z,5.53
2022-09-13T13:52:39.101Z,4.70
2022-09-13T13:53:43.886Z,4.72
2022-09-13T13:55:06.262Z,7.22
2022-09-13T13:56:17.832Z,3.67
2022-09-13T13:57:24.423Z,5.47
2022-09-13T13:58:38.998Z,4.35
2022-09-13T13:59:41.524Z,4.85
2022-09-13T14:00:48.474Z,3.17
2022-09-13T14:01:55.633Z,3.53
2022-09-13T14:03:09.816Z,5.35
2022-09-13T14:04:43.909Z,5.93
2022-09-13T14:05:51.207Z,5.63
2022-09-13T14:07:06.031Z,4.65
2022-09-13T14:08:32.325Z,3.15
2022-09-13T14:09:39.880Z,5.22
2022-09-13T14:10:45.529Z,5.20
2022-09-13T14:11:57.000Z,4.80
2022-09-13T14:13:16.786Z,3.58
2022-09-13T14:14:29.928Z,4.85
2022-09-13T14:15:42.214Z,5.90
2022-09-13T14:16:58.141Z,3.47
2022-09-13T14:18:17.790Z,4.32
2022-09-13T14:19:31.199Z,2.60
2022-09-13T14:20:32.811Z,4.82
2022-09-13T14:21:35.490Z,5.40
2022-09-13T14:22:37.271Z,4.07
2022-09-13T14:23:39.793Z,3.63
2022-09-13T14:24:43.133Z,2.75
2022-09-13T14:25:45.913Z,3.13
2022-09-13T14:26:49.887Z,2.30
2022-09-13T14:27:56.299Z,3.33
2022-09-13T14:28:57.837Z,4.22
2022-09-13T14:30:03.289Z,2.05
2022-09-13T14:31:05.550Z,4.70
2022-09-13T14:32:16.695Z,7.20
2022-09-13T14:33:23.586Z,6.85
2022-09-13T14:34:30.039Z,4.47
2022-09-13T14:35:34.547Z,3.95
2022-09-13T14:36:36.206Z,3.95
2022-09-13T14:37:40.359Z,5.45
2022-09-13T14:38:54.225Z,4.35
2022-09-13T14:40:02.280Z,3.72
2022-09-13T14:41:14.206Z,2.53
2022-09-13T14:42:16.815Z,3.20
2022-09-13T14:43:20.544Z,6.15
2022-09-13T14:44:28.930Z,6.10
2022-09-13T14:45:33.562Z,5.25
2022-09-13T14:46:40.603Z,5.88
2022-09-13T14:47:48.972Z,3.85